createdAt,value
2017-07-07T00:01:51.159Z,20.00
2017-07-07T00:04:17.590Z,19.90
2017-07-07T00:06:44.050Z,19.90
2017-07-07T00:09:10.396Z,19.90
2017-07-07T00:11:37.469Z,19.80
2017-07-07T00:14:03.855Z,19.80
2017-07-07T00:16:32.874Z,19.90
2017-07-07T00:18:59.223Z,19.90
2017-07-07T00:21:25.595Z,19.90
2017-07-07T00:23:52.716Z,19.90
2017-07-07T00:26:19.039Z,19.90
2017-07-07T00:28:45.390Z,19.90
2017-07-07T00:31:11.763Z,19.90
2017-07-07T00:33:38.870Z,19.80
2017-07-07T00:36:05.205Z,19.80
2017-07-07T00:38:31.584Z,19.80
2017-07-07T00:40:57.933Z,19.80
2017-07-07T00:43:24.293Z,19.70
2017-07-07T00:45:50.654Z,19.70
2017-07-07T00:48:17.790Z,19.70
2017-07-07T00:50:44.137Z,19.70
2017-07-07T00:53:11.268Z,19.70
2017-07-07T00:55:37.601Z,19.60
2017-07-07T00:58:05.021Z,19.60
2017-07-07T01:00:31.368Z,19.60
2017-07-07T01:02:57.709Z,19.50
2017-07-07T01:05:24.794Z,19.40
2017-07-07T01:07:51.104Z,19.40
2017-07-07T01:10:17.456Z,19.40
2017-07-07T01:12:43.806Z,19.40
2017-07-07T01:15:10.165Z,19.40
2017-07-07T01:17:36.632Z,19.30
2017-07-07T01:20:02.978Z,19.30
2017-07-07T01:22:29.306Z,19.30
2017-07-07T01:24:55.681Z,19.30
2017-07-07T01:27:22.037Z,19.30
2017-07-07T01:29:49.086Z,19.20
2017-07-07T01:32:16.159Z,19.20
2017-07-07T01:34:42.574Z,19.10
2017-07-07T01:37:08.942Z,19.10
2017-07-07T01:39:35.318Z,19.10
2017-07-07T01:42:02.423Z,19.10
2017-07-07T01:44:28.822Z,19.10
2017-07-07T01:46:55.212Z,19.00
2017-07-07T01:49:21.635Z,19.00
2017-07-07T01:51:47.991Z,19.00
2017-07-07T01:54:14.368Z,19.00
2017-07-07T01:56:40.755Z,19.00
2017-07-07T01:59:07.152Z,19.00
2017-07-07T02:01:33.527Z,19.00
2017-07-07T02:03:59.881Z,19.00
2017-07-07T02:06:26.222Z,19.00
2017-07-07T02:08:52.577Z,19.00
2017-07-07T02:11:19.666Z,19.00
2017-07-07T02:13:46.019Z,19.00
2017-07-07T02:16:12.368Z,19.10
2017-07-07T02:18:38.839Z,19.10
2017-07-07T02:21:05.186Z,19.10
2017-07-07T02:23:31.506Z,19.10
2017-07-07T02:25:57.892Z,19.00
2017-07-07T02:28:24.255Z,19.10
2017-07-07T02:30:50.620Z,19.10
2017-07-07T02:33:16.926Z,19.10
2017-07-07T02:35:43.288Z,19.00
2017-07-07T02:38:09.649Z,19.00
2017-07-07T02:40:36.004Z,19.00
2017-07-07T02:43:03.075Z,19.00
2017-07-07T02:45:29.475Z,18.90
2017-07-07T02:47:56.561Z,18.90
2017-07-07T02:50:22.927Z,18.80
2017-07-07T02:52:49.265Z,18.80
2017-07-07T02:55:15.609Z,18.80
2017-07-07T02:57:42.702Z,18.80
2017-07-07T03:00:09.045Z,18.80
2017-07-07T03:02:35.389Z,18.80
2017-07-07T03:05:01.759Z,18.80
2017-07-07T03:07:28.107Z,18.80
2017-07-07T03:09:54.476Z,18.70
2017-07-07T03:12:21.599Z,18.80
2017-07-07T03:14:47.948Z,18.70
2017-07-07T03:17:14.424Z,18.70
2017-07-07T03:19:40.764Z,18.70
2017-07-07T03:22:07.116Z,18.70
2017-07-07T03:24:33.442Z,18.70
2017-07-07T03:26:59.798Z,18.70
2017-07-07T03:29:26.155Z,18.70
2017-07-07T03:31:53.248Z,18.80
2017-07-07T03:34:19.595Z,18.80
2017-07-07T03:36:45.950Z,18.80
2017-07-07T03:39:13.033Z,18.90
2017-07-07T03:41:39.387Z,18.90
2017-07-07T03:44:05.779Z,18.90
2017-07-07T03:46:32.144Z,19.00
2017-07-07T03:48:58.521Z,19.00
2017-07-07T03:51:25.615Z,19.10
2017-07-07T03:53:51.955Z,19.00
2017-07-07T03:56:18.304Z,19.10
2017-07-07T03:58:44.667Z,19.20
2017-07-07T04:01:11.059Z,19.20
2017-07-07T04:03:37.392Z,19.20
2017-07-07T04:06:03.769Z,19.20
2017-07-07T04:08:30.123Z,19.20
2017-07-07T04:10:56.489Z,19.30
2017-07-07T04:13:22.864Z,19.40
2017-07-07T04:15:49.207Z,19.50
2017-07-07T04:18:15.616Z,19.60
2017-07-07T04:20:42.001Z,19.60
2017-07-07T04:23:08.411Z,19.50
2017-07-07T04:25:34.768Z,19.30
2017-07-07T04:28:01.142Z,19.20
2017-07-07T04:30:27.540Z,19.20
2017-07-07T04:32:54.683Z,19.30
2017-07-07T04:35:21.031Z,19.20
2017-07-07T04:37:47.378Z,19.30
2017-07-07T04:40:13.746Z,19.30
2017-07-07T04:42:40.128Z,19.40
2017-07-07T04:45:06.496Z,19.40
2017-07-07T04:47:32.884Z,19.50
2017-07-07T04:49:59.306Z,19.60
2017-07-07T04:52:26.407Z,19.60
2017-07-07T04:54:52.786Z,19.60
2017-07-07T04:57:19.916Z,19.50
2017-07-07T04:59:46.276Z,19.50
2017-07-07T05:02:12.659Z,19.50
2017-07-07T05:04:39.038Z,19.40
2017-07-07T05:07:05.427Z,19.40
2017-07-07T05:09:31.784Z,19.40
2017-07-07T05:11:58.201Z,19.40
2017-07-07T05:14:24.576Z,19.40
2017-07-07T05:16:51.022Z,19.40
2017-07-07T05:19:17.382Z,19.50
2017-07-07T05:21:43.750Z,19.60
2017-07-07T05:24:10.095Z,19.70
2017-07-07T05:26:36.513Z,19.70
2017-07-07T05:29:04.025Z,19.70
2017-07-07T05:31:30.359Z,19.70
2017-07-07T05:33:56.735Z,19.70
2017-07-07T05:36:23.117Z,19.80
2017-07-07T05:38:49.487Z,20.00
2017-07-07T05:41:15.850Z,20.00
2017-07-07T05:43:42.202Z,20.10
2017-07-07T05:46:08.544Z,20.20
2017-07-07T05:48:34.927Z,20.40
2017-07-07T05:51:01.269Z,20.60
2017-07-07T05:53:27.629Z,20.80
2017-07-07T05:55:53.978Z,21.00
2017-07-07T05:58:20.343Z,21.10
2017-07-07T06:00:46.661Z,21.30
2017-07-07T06:03:13.001Z,21.50
2017-07-07T06:05:39.383Z,21.60
2017-07-07T06:08:06.476Z,21.90
2017-07-07T06:10:32.867Z,21.90
2017-07-07T06:12:59.965Z,22.30
2017-07-07T06:15:26.145Z,22.20
2017-07-07T06:17:52.363Z,22.40
2017-07-07T06:20:19.289Z,22.60
2017-07-07T06:22:45.580Z,22.60
2017-07-07T06:25:11.920Z,22.70
2017-07-07T06:27:38.272Z,22.70
2017-07-07T06:30:04.653Z,22.80
2017-07-07T06:32:31.006Z,22.70
2017-07-07T06:34:57.364Z,22.70
2017-07-07T06:37:24.457Z,22.70
2017-07-07T06:39:50.825Z,22.70
2017-07-07T06:42:17.459Z,22.80
2017-07-07T06:44:43.809Z,23.00
2017-07-07T06:47:10.894Z,23.30
2017-07-07T06:49:37.573Z,23.20
2017-07-07T06:52:03.926Z,23.30
2017-07-07T06:54:31.093Z,23.40
2017-07-07T06:56:57.490Z,23.40
2017-07-07T06:59:23.841Z,23.30
2017-07-07T07:04:51.332Z,23.30
2017-07-07T07:07:17.644Z,23.30
2017-07-07T07:09:44.774Z,23.50
2017-07-07T07:12:11.130Z,23.50
2017-07-07T07:14:37.508Z,23.60
2017-07-07T07:17:05.688Z,23.70
2017-07-07T07:19:32.054Z,23.80
2017-07-07T07:21:58.420Z,23.90
2017-07-07T07:24:24.753Z,24.00
2017-07-07T07:26:51.123Z,24.00
2017-07-07T07:29:17.519Z,24.10
2017-07-07T07:31:43.865Z,24.20
2017-07-07T07:34:10.270Z,24.30
2017-07-07T07:36:36.632Z,24.40
2017-07-07T07:39:03.092Z,24.50
2017-07-07T07:41:30.180Z,24.90
2017-07-07T07:43:56.555Z,24.80
2017-07-07T07:46:22.899Z,25.10
2017-07-07T07:48:50.014Z,25.20
2017-07-07T07:51:16.670Z,25.20
2017-07-07T07:53:43.035Z,25.20
2017-07-07T07:56:09.387Z,25.10
2017-07-07T07:58:35.760Z,25.20
2017-07-07T08:01:02.261Z,25.30
2017-07-07T08:03:28.625Z,25.60
2017-07-07T08:05:55.427Z,25.70
2017-07-07T08:08:22.095Z,25.70
2017-07-07T08:10:48.512Z,25.70
2017-07-07T08:13:14.854Z,25.70
2017-07-07T08:15:41.228Z,25.70
2017-07-07T08:18:07.692Z,25.70
2017-07-07T08:20:34.767Z,25.60
2017-07-07T08:23:01.323Z,25.70
2017-07-07T08:25:28.552Z,25.90
2017-07-07T08:27:55.673Z,25.90
2017-07-07T08:30:22.107Z,25.90
2017-07-07T08:32:48.467Z,25.90
2017-07-07T08:35:15.601Z,25.80
2017-07-07T08:37:41.981Z,25.80
2017-07-07T08:40:08.490Z,25.80
2017-07-07T08:42:35.622Z,25.90
2017-07-07T08:45:02.779Z,25.90
2017-07-07T08:47:29.191Z,25.90
2017-07-07T08:49:55.627Z,25.90
2017-07-07T08:52:22.784Z,25.60
2017-07-07T08:54:49.930Z,25.50
2017-07-07T08:57:17.023Z,25.50
2017-07-07T08:59:43.441Z,25.50
2017-07-07T09:02:09.775Z,25.50
2017-07-07T09:04:36.147Z,25.50
2017-07-07T09:07:02.493Z,25.60
2017-07-07T09:09:28.854Z,25.50
2017-07-07T09:11:55.293Z,25.50
2017-07-07T09:14:21.617Z,25.60
2017-07-07T09:16:47.997Z,25.60
2017-07-07T09:19:14.643Z,25.60
2017-07-07T09:21:40.962Z,25.60
2017-07-07T09:24:07.304Z,25.70
2017-07-07T09:26:33.674Z,25.70
2017-07-07T09:28:59.988Z,25.90
2017-07-07T09:31:26.394Z,26.00
2017-07-07T09:33:53.543Z,26.10
2017-07-07T09:36:19.876Z,26.10
2017-07-07T09:38:46.968Z,26.10
2017-07-07T09:41:13.307Z,26.00
2017-07-07T09:43:39.689Z,26.10
2017-07-07T09:46:06.070Z,26.20
2017-07-07T09:48:32.395Z,26.40
2017-07-07T09:50:58.755Z,26.50
2017-07-07T09:53:25.127Z,26.80
2017-07-07T09:55:51.546Z,27.10
2017-07-07T09:58:17.916Z,27.40
2017-07-07T10:00:44.277Z,27.70
2017-07-07T10:03:10.603Z,27.80
2017-07-07T10:05:36.959Z,27.90
2017-07-07T10:08:04.041Z,28.20
2017-07-07T10:10:30.390Z,28.10
2017-07-07T10:12:56.732Z,28.20
2017-07-07T10:15:23.089Z,28.30
2017-07-07T10:17:49.523Z,28.30
2017-07-07T10:20:15.914Z,28.30
2017-07-07T10:22:42.241Z,28.20
2017-07-07T10:25:08.712Z,28.20
2017-07-07T10:27:35.800Z,28.30
2017-07-07T10:30:02.179Z,28.30
2017-07-07T10:32:29.287Z,28.30
2017-07-07T10:34:55.622Z,28.30
2017-07-07T10:37:21.947Z,28.40
2017-07-07T10:39:48.596Z,28.90
2017-07-07T10:42:15.767Z,29.50
2017-07-07T10:44:42.304Z,29.70
2017-07-07T10:47:08.707Z,29.60
2017-07-07T10:49:35.524Z,29.40
2017-07-07T10:52:01.933Z,29.10
2017-07-07T10:54:28.277Z,28.80
2017-07-07T10:56:54.643Z,28.40
2017-07-07T10:59:27.137Z,28.10
2017-07-07T11:01:53.485Z,27.90
2017-07-07T11:04:19.863Z,27.60
2017-07-07T11:06:46.239Z,27.40
2017-07-07T11:09:12.623Z,27.30
2017-07-07T11:11:38.975Z,27.20
2017-07-07T11:14:05.325Z,27.10
2017-07-07T11:16:31.688Z,27.10
2017-07-07T11:18:58.030Z,27.00
2017-07-07T11:21:24.386Z,27.00
2017-07-07T11:23:50.855Z,26.90
2017-07-07T11:26:18.229Z,26.70
2017-07-07T11:28:44.605Z,26.50
2017-07-07T11:31:10.999Z,26.40
2017-07-07T11:33:37.374Z,26.40
2017-07-07T11:36:03.739Z,26.40
2017-07-07T11:38:30.065Z,26.40
2017-07-07T11:40:56.777Z,26.40
2017-07-07T11:43:23.884Z,26.40
2017-07-07T11:45:50.259Z,26.40
2017-07-07T11:48:17.426Z,26.40
2017-07-07T11:50:43.806Z,26.30
2017-07-07T11:53:10.191Z,26.40
2017-07-07T11:55:36.599Z,26.40
2017-07-07T11:58:03.723Z,26.80
2017-07-07T12:00:30.089Z,26.80
2017-07-07T12:02:56.496Z,27.00
2017-07-07T12:05:23.563Z,27.70
2017-07-07T12:07:49.963Z,27.70
2017-07-07T12:10:16.282Z,28.20
2017-07-07T12:12:42.655Z,28.40
2017-07-07T12:15:09.009Z,28.60
2017-07-07T12:17:35.347Z,29.10
2017-07-07T12:20:08.898Z,29.80
2017-07-07T12:22:35.987Z,30.50
2017-07-07T12:25:02.368Z,30.50
2017-07-07T12:27:28.737Z,30.70
2017-07-07T12:29:55.099Z,30.70
2017-07-07T12:32:21.490Z,30.60
2017-07-07T12:34:47.849Z,30.50
2017-07-07T12:37:14.222Z,30.40
2017-07-07T12:39:40.590Z,30.50
2017-07-07T12:42:06.951Z,30.60
2017-07-07T12:44:33.329Z,30.80
2017-07-07T12:46:59.685Z,30.70
2017-07-07T12:49:26.042Z,30.40
2017-07-07T12:51:52.426Z,30.50
2017-07-07T12:54:18.769Z,31.00
2017-07-07T12:56:45.106Z,31.50
2017-07-07T12:59:11.482Z,32.20
2017-07-07T13:01:38.601Z,31.70
2017-07-07T13:04:05.026Z,31.70
2017-07-07T13:06:31.429Z,31.50
2017-07-07T13:08:57.827Z,31.80
2017-07-07T13:11:24.923Z,32.20
2017-07-07T13:13:51.271Z,32.10
2017-07-07T13:16:17.619Z,32.60
2017-07-07T13:18:44.032Z,33.10
2017-07-07T13:21:10.416Z,33.50
2017-07-07T13:23:36.841Z,33.80
2017-07-07T13:26:03.212Z,34.40
2017-07-07T13:28:29.596Z,34.80
2017-07-07T13:30:55.939Z,35.20
2017-07-07T13:33:22.311Z,35.50
2017-07-07T13:35:48.678Z,35.70
2017-07-07T13:38:15.790Z,35.30
2017-07-07T13:40:42.133Z,35.30
2017-07-07T13:43:08.815Z,34.70
2017-07-07T13:45:35.156Z,34.40
2017-07-07T13:48:01.502Z,34.00
2017-07-07T13:50:27.882Z,33.80
2017-07-07T13:52:55.017Z,33.80
2017-07-07T13:55:21.329Z,33.80
2017-07-07T13:57:47.679Z,34.40
2017-07-07T14:00:14.301Z,35.10
2017-07-07T14:02:40.649Z,35.60
2017-07-07T14:05:07.758Z,36.20
2017-07-07T14:07:34.115Z,36.20
2017-07-07T14:10:00.490Z,36.10
2017-07-07T14:12:26.857Z,36.00
2017-07-07T14:14:53.273Z,35.90
2017-07-07T14:17:19.622Z,36.00
2017-07-07T14:19:45.997Z,36.00
2017-07-07T14:22:12.650Z,35.90
2017-07-07T14:24:39.064Z,35.70
2017-07-07T14:27:05.417Z,35.30
2017-07-07T14:29:31.792Z,34.90
2017-07-07T14:31:58.137Z,34.90
2017-07-07T14:34:24.491Z,34.90
2017-07-07T14:36:50.835Z,34.80
2017-07-07T14:39:17.202Z,34.80
2017-07-07T14:41:43.532Z,34.70
2017-07-07T14:44:10.292Z,34.30
2017-07-07T14:46:36.650Z,34.20
2017-07-07T14:49:02.988Z,34.20
2017-07-07T14:51:29.387Z,34.20
2017-07-07T14:53:55.732Z,34.10
2017-07-07T14:56:22.122Z,33.80
2017-07-07T14:58:48.454Z,33.50
2017-07-07T15:01:15.527Z,32.80
2017-07-07T15:03:41.893Z,32.80
2017-07-07T15:15:53.937Z,31.90
2017-07-07T15:18:20.307Z,31.20
2017-07-07T15:20:47.739Z,30.70
2017-07-07T15:23:14.135Z,30.70
2017-07-07T15:25:40.552Z,30.50
2017-07-07T15:28:06.914Z,30.20
2017-07-07T15:30:33.278Z,30.00
2017-07-07T15:32:59.659Z,29.80
2017-07-07T15:35:26.025Z,29.60
2017-07-07T15:37:52.408Z,29.40
2017-07-07T15:40:18.784Z,29.10
2017-07-07T15:42:45.141Z,28.70
2017-07-07T15:45:12.277Z,27.60
2017-07-07T15:47:39.424Z,26.90
2017-07-07T15:50:05.802Z,26.90
2017-07-07T15:52:32.189Z,26.60
2017-07-07T15:54:58.556Z,26.40
2017-07-07T15:57:24.931Z,26.50
2017-07-07T15:59:51.257Z,26.60
2017-07-07T16:02:17.657Z,26.50
2017-07-07T16:04:43.990Z,26.60
2017-07-07T16:07:10.318Z,27.00
2017-07-07T16:09:36.701Z,27.70
2017-07-07T16:12:03.795Z,29.10
2017-07-07T16:14:37.027Z,29.10
2017-07-07T16:17:03.448Z,29.60
2017-07-07T16:19:29.856Z,29.70
2017-07-07T16:21:56.234Z,29.30
2017-07-07T16:24:22.665Z,28.90
2017-07-07T16:26:49.027Z,28.60
2017-07-07T16:29:15.396Z,28.60
2017-07-07T16:31:41.753Z,28.90
2017-07-07T16:34:08.890Z,29.60
2017-07-07T16:36:35.225Z,29.60
2017-07-07T16:39:02.433Z,30.30
2017-07-07T16:41:28.770Z,30.30
2017-07-07T16:43:55.131Z,30.50
2017-07-07T16:46:22.222Z,29.70
2017-07-07T16:48:48.573Z,29.60
2017-07-07T16:51:14.995Z,29.50
2017-07-07T16:53:41.394Z,29.60
2017-07-07T16:56:07.789Z,29.90
2017-07-07T16:58:34.921Z,30.30
2017-07-07T17:01:01.293Z,30.20
2017-07-07T17:03:28.400Z,30.20
2017-07-07T17:05:54.745Z,30.10
2017-07-07T17:08:21.126Z,30.10
2017-07-07T17:10:47.498Z,30.00
2017-07-07T17:13:13.889Z,30.10
2017-07-07T17:15:40.259Z,30.10
2017-07-07T17:18:06.906Z,30.00
2017-07-07T17:20:33.262Z,29.80
2017-07-07T17:22:59.600Z,29.50
2017-07-07T17:25:26.042Z,29.40
2017-07-07T17:27:52.424Z,29.20
2017-07-07T17:30:18.809Z,29.00
2017-07-07T17:32:45.187Z,28.80
2017-07-07T17:35:11.538Z,28.60
2017-07-07T17:37:38.627Z,28.10
2017-07-07T17:40:05.036Z,28.10
2017-07-07T17:42:31.417Z,27.80
2017-07-07T17:44:57.793Z,27.60
2017-07-07T17:47:24.133Z,27.30
2017-07-07T17:49:50.497Z,27.00
2017-07-07T17:52:20.050Z,26.90
2017-07-07T17:54:46.432Z,26.60
2017-07-07T17:57:12.774Z,26.40
2017-07-07T17:59:39.157Z,26.10
2017-07-07T18:02:25.531Z,25.90
2017-07-07T18:04:51.959Z,25.60
2017-07-07T18:07:19.094Z,25.20
2017-07-07T18:09:45.436Z,25.20
2017-07-07T18:12:11.816Z,25.20
2017-07-07T18:14:38.238Z,25.10
2017-07-07T18:17:04.671Z,25.00
2017-07-07T18:19:31.082Z,24.90
2017-07-07T18:21:57.485Z,24.90
2017-07-07T18:24:24.680Z,24.80
2017-07-07T18:26:51.056Z,24.70
2017-07-07T18:29:18.153Z,24.60
2017-07-07T18:31:44.519Z,24.60
2017-07-07T18:34:11.642Z,24.50
2017-07-07T18:36:37.995Z,24.50
2017-07-07T18:39:04.354Z,24.50
2017-07-07T18:41:30.752Z,24.40
2017-07-07T18:43:57.098Z,24.30
2017-07-07T18:46:24.236Z,24.20
2017-07-07T18:48:50.592Z,24.10
2017-07-07T18:51:16.950Z,24.10
2017-07-07T18:53:43.380Z,24.00
2017-07-07T18:56:09.760Z,24.00
2017-07-07T18:58:36.853Z,24.00
2017-07-07T19:01:03.241Z,24.00
2017-07-07T19:03:29.589Z,24.00
2017-07-07T19:05:55.962Z,24.00
2017-07-07T19:08:22.334Z,23.90
2017-07-07T19:10:49.433Z,23.70
2017-07-07T19:13:15.778Z,23.70
2017-07-07T19:15:42.151Z,23.70
2017-07-07T19:18:09.256Z,23.60
2017-07-07T19:20:35.632Z,23.60
2017-07-07T19:23:04.086Z,23.50
2017-07-07T19:25:31.110Z,23.50
2017-07-07T19:27:58.265Z,23.30
2017-07-07T19:30:24.724Z,23.30
2017-07-07T19:32:51.979Z,23.20
2017-07-07T19:35:19.108Z,23.00
2017-07-07T19:37:46.235Z,23.00
2017-07-07T19:40:12.658Z,23.00
2017-07-07T19:42:40.091Z,22.90
2017-07-07T19:45:06.629Z,22.90
2017-07-07T19:47:32.969Z,22.80
2017-07-07T19:50:00.497Z,22.60
2017-07-07T19:52:26.911Z,22.60
2017-07-07T20:00:54.389Z,22.30
2017-07-07T20:03:21.524Z,22.20
2017-07-07T20:05:47.892Z,22.20
2017-07-07T20:08:14.369Z,22.20
2017-07-07T20:10:40.741Z,22.20
2017-07-07T20:13:07.830Z,22.00
2017-07-07T20:15:34.213Z,22.00
2017-07-07T20:18:00.638Z,21.90
2017-07-07T20:20:27.803Z,21.70
2017-07-07T20:22:54.168Z,21.70
2017-07-07T20:25:22.280Z,21.60
2017-07-07T20:27:48.655Z,21.60
2017-07-07T20:30:15.012Z,21.60
2017-07-07T20:32:41.399Z,21.50
2017-07-07T20:35:07.875Z,21.40
2017-07-07T20:37:34.222Z,21.30
2017-07-07T20:40:00.590Z,21.20
2017-07-07T20:42:27.751Z,21.20
2017-07-07T20:44:54.098Z,21.20
2017-07-07T20:47:20.502Z,21.30
2017-07-07T20:49:46.845Z,21.20
2017-07-07T20:52:13.216Z,21.20
2017-07-07T20:54:39.555Z,21.20
2017-07-07T20:57:05.938Z,21.20
2017-07-07T20:59:32.278Z,21.20
2017-07-07T21:01:58.658Z,21.10
2017-07-07T21:04:25.088Z,21.00
2017-07-07T21:06:52.208Z,21.00
2017-07-07T21:09:18.554Z,21.00
2017-07-07T21:11:45.022Z,21.00
2017-07-07T21:14:11.454Z,21.00
2017-07-07T21:16:37.866Z,21.00
2017-07-07T21:19:04.964Z,21.00
2017-07-07T21:21:31.329Z,21.00
2017-07-07T21:23:57.790Z,21.20
2017-07-07T21:26:24.256Z,21.40
2017-07-07T21:28:50.621Z,21.50
2017-07-07T21:31:17.106Z,21.60
2017-07-07T21:33:43.448Z,21.60
2017-07-07T21:36:09.804Z,21.70
2017-07-07T21:38:36.179Z,21.70
2017-07-07T21:41:02.552Z,21.70
2017-07-07T21:43:31.116Z,21.70
2017-07-07T21:45:57.467Z,21.70
2017-07-07T21:48:23.853Z,21.60
2017-07-07T21:50:50.257Z,21.50
2017-07-07T21:53:21.294Z,21.10
2017-07-07T21:55:48.400Z,20.70
2017-07-07T21:58:14.741Z,20.70
2017-07-07T22:00:41.156Z,20.50
2017-07-07T22:03:07.535Z,20.20
2017-07-07T22:05:34.604Z,19.90
2017-07-07T22:08:00.955Z,19.90
2017-07-07T22:10:27.293Z,19.70
2017-07-07T22:12:53.684Z,19.60
2017-07-07T22:15:20.051Z,19.40
2017-07-07T22:17:46.409Z,19.30
2017-07-07T22:20:13.490Z,19.20
2017-07-07T22:22:40.753Z,19.10
2017-07-07T22:25:07.171Z,19.10
2017-07-07T22:27:33.560Z,19.10
2017-07-07T22:29:59.941Z,19.00
2017-07-07T22:32:26.272Z,19.00
2017-07-07T22:34:52.639Z,19.00
2017-07-07T22:37:19.037Z,19.00
2017-07-07T22:39:45.393Z,19.00
2017-07-07T22:42:11.762Z,19.00
2017-07-07T22:44:38.107Z,18.90
2017-07-07T22:47:04.473Z,18.90
2017-07-07T22:49:30.861Z,18.90
2017-07-07T22:51:57.201Z,18.90
2017-07-07T22:54:23.593Z,18.90
2017-07-07T22:56:49.934Z,18.90
2017-07-07T22:59:16.291Z,18.90
2017-07-07T23:01:42.646Z,18.80
2017-07-07T23:04:09.010Z,18.90
2017-07-07T23:06:35.329Z,18.80
2017-07-07T23:09:01.684Z,18.90
2017-07-07T23:11:28.767Z,18.80
2017-07-07T23:13:55.139Z,18.80
2017-07-07T23:16:21.481Z,18.90
2017-07-07T23:18:47.853Z,18.90
2017-07-07T23:21:14.209Z,18.90
2017-07-07T23:23:40.589Z,19.00
2017-07-07T23:26:06.935Z,19.00
2017-07-07T23:28:33.292Z,19.00
2017-07-07T23:30:59.637Z,19.00
2017-07-07T23:33:26.011Z,19.00
2017-07-07T23:35:52.393Z,19.10
2017-07-07T23:38:18.746Z,19.10
2017-07-07T23:40:45.059Z,19.10
2017-07-07T23:43:11.412Z,19.10
2017-07-07T23:45:38.479Z,19.10
2017-07-07T23:48:04.832Z,19.10
2017-07-07T23:50:31.175Z,19.10
2017-07-07T23:52:57.782Z,19.10
2017-07-07T23:55:24.119Z,19.10
2017-07-07T23:57:50.507Z,19.00
